Time;durP1;ratioP1;P1;durP2;ratioP2;P2;SDS_P1;SDS_P2;PMS_P1;PMS_P2;Temp;Humidity;BMP_temperature;BMP_pressure;BME280_temperature;BME280_humidity;BME280_pressure;Samples;Min_cycle;Max_cycle;Signal;HPM_P1;HPM_P2
2023/08/03 00:00:12;;;;;;;0.93;0.70;;;18.50;99.90;;;;;;5013364;28;20467;-73
2023/08/03 00:02:39;;;;;;;1.33;0.80;;;18.50;99.90;;;;;;5013581;28;20465;-73
2023/08/03 00:05:06;;;;;;;1.60;0.83;;;18.50;99.90;;;;;;5013524;28;20442;-73
2023/08/03 00:07:33;;;;;;;1.63;0.87;;;18.50;99.90;;;;;;5012469;28;20448;-72
2023/08/03 00:10:02;;;;;;;2.57;0.80;;;18.40;99.90;;;;;;5013421;28;20467;-73
2023/08/03 00:12:29;;;;;;;1.30;1.00;;;18.40;99.90;;;;;;5013471;28;20479;-72
2023/08/03 00:14:56;;;;;;;2.37;1.00;;;18.40;99.90;;;;;;5013643;28;20440;-73
2023/08/03 00:17:22;;;;;;;1.50;0.80;;;18.40;99.90;;;;;;5013448;28;20446;-73
2023/08/03 00:19:49;;;;;;;4.60;2.07;;;18.40;99.90;;;;;;5014895;28;20444;-73
2023/08/03 00:22:16;;;;;;;1.97;1.40;;;18.50;99.90;;;;;;5013601;28;20835;-73
2023/08/03 00:24:42;;;;;;;2.57;1.47;;;18.40;99.90;;;;;;5013550;28;20447;-73
2023/08/03 00:27:10;;;;;;;4.73;1.07;;;18.50;99.90;;;;;;5013097;28;20461;-72
2023/08/03 00:29:37;;;;;;;1.63;0.87;;;18.40;99.90;;;;;;5013354;28;20443;-73
2023/08/03 00:32:06;;;;;;;5.93;2.40;;;18.40;99.90;;;;;;5012111;28;20931;-74
2023/08/03 00:34:33;;;;;;;2.30;0.80;;;18.40;99.90;;;;;;5013523;28;20436;-73
2023/08/03 00:37:00;;;;;;;1.47;0.77;;;18.30;99.90;;;;;;5012241;28;20450;-73
2023/08/03 00:39:28;;;;;;;1.03;0.70;;;18.30;99.90;;;;;;5013315;28;20443;-73
2023/08/03 00:41:54;;;;;;;1.63;0.97;;;18.30;99.90;;;;;;5014445;28;20455;-73
2023/08/03 00:44:23;;;;;;;3.23;1.33;;;18.30;99.90;;;;;;5016858;28;20435;-73
2023/08/03 00:46:49;;;;;;;1.23;0.63;;;18.20;99.90;;;;;;5015817;28;20881;-73
2023/08/03 00:49:16;;;;;;;4.23;0.90;;;18.20;99.90;;;;;;5016682;28;20849;-72
2023/08/03 00:51:43;;;;;;;1.07;0.97;;;18.20;99.90;;;;;;5016393;28;20459;-72
2023/08/03 00:54:10;;;;;;;3.67;0.93;;;18.10;99.90;;;;;;5016546;28;20489;-72
2023/08/03 00:56:37;;;;;;;2.13;1.10;;;18.00;99.90;;;;;;5016921;28;20450;-72
2023/08/03 00:59:06;;;;;;;3.40;1.07;;;18.00;99.90;;;;;;5016986;28;20451;-73
2023/08/03 01:01:34;;;;;;;2.33;1.07;;;18.00;99.90;;;;;;5016544;28;20501;-73
2023/08/03 01:04:01;;;;;;;2.90;0.90;;;17.90;99.90;;;;;;5016674;28;20439;-73
2023/08/03 01:06:29;;;;;;;1.60;1.03;;;17.90;99.90;;;;;;5016931;28;20450;-73
2023/08/03 01:08:59;;;;;;;5.43;1.27;;;17.90;99.90;;;;;;5024254;28;20438;-73
2023/08/03 01:11:26;;;;;;;1.40;1.10;;;17.90;99.90;;;;;;5024607;28;20463;-72
2023/08/03 01:13:53;;;;;;;3.07;1.23;;;17.80;99.90;;;;;;5020518;28;20996;-72
2023/08/03 01:16:22;;;;;;;2.80;1.00;;;17.80;99.90;;;;;;5018609;28;20439;-73
2023/08/03 01:18:51;;;;;;;1.50;0.77;;;17.80;99.90;;;;;;5016907;28;20485;-73
2023/08/03 01:21:19;;;;;;;2.83;1.10;;;17.80;99.90;;;;;;5017618;28;20466;-72
2023/08/03 01:23:48;;;;;;;1.77;1.10;;;17.70;99.90;;;;;;5016845;28;20447;-73
2023/08/03 01:26:14;;;;;;;2.53;1.30;;;17.70;99.90;;;;;;5015798;28;20487;-73
2023/08/03 01:28:41;;;;;;;3.73;0.90;;;17.70;99.90;;;;;;5016911;28;20431;-72
2023/08/03 01:31:08;;;;;;;5.37;1.70;;;17.60;99.90;;;;;;5016318;28;20999;-73
2023/08/03 01:33:35;;;;;;;5.43;1.60;;;17.70;99.90;;;;;;5015602;28;20479;-73
2023/08/03 01:36:02;;;;;;;2.07;1.00;;;17.70;99.90;;;;;;5016833;28;20448;-72
2023/08/03 01:38:29;;;;;;;1.80;1.07;;;17.70;99.90;;;;;;5016001;28;20446;-72
2023/08/03 01:40:59;;;;;;;2.57;1.07;;;17.80;99.90;;;;;;5016272;28;20467;-72
2023/08/03 01:43:26;;;;;;;3.93;1.30;;;17.80;99.90;;;;;;5016341;28;20462;-73
2023/08/03 01:45:53;;;;;;;4.53;1.37;;;17.70;99.90;;;;;;5016112;28;20447;-73
2023/08/03 01:48:19;;;;;;;4.17;1.60;;;17.70;99.90;;;;;;5016125;28;20443;-73
2023/08/03 01:50:46;;;;;;;4.00;1.33;;;17.70;99.90;;;;;;5015359;28;20514;-73
2023/08/03 01:53:16;;;;;;;3.40;1.37;;;17.80;99.90;;;;;;5013604;28;20475;-73
2023/08/03 01:55:43;;;;;;;2.97;0.90;;;17.80;99.90;;;;;;5016067;28;20489;-73
2023/08/03 01:58:12;;;;;;;5.43;1.40;;;17.80;99.90;;;;;;5015800;28;20439;-73
2023/08/03 02:00:39;;;;;;;1.33;0.93;;;17.80;99.90;;;;;;5015645;28;20474;-72
2023/08/03 02:03:05;;;;;;;6.27;2.07;;;17.70;99.90;;;;;;5016112;28;20436;-72
2023/08/03 02:05:32;;;;;;;4.60;1.50;;;17.70;99.90;;;;;;5015501;28;20824;-72
2023/08/03 02:07:59;;;;;;;3.70;1.27;;;17.70;99.90;;;;;;5015891;28;20450;-72
2023/08/03 02:10:26;;;;;;;3.90;1.23;;;17.70;99.90;;;;;;5019888;28;20486;-72
2023/08/03 02:12:52;;;;;;;5.80;1.37;;;17.60;99.90;;;;;;5034998;28;20814;-72
2023/08/03 02:15:21;;;;;;;4.40;1.20;;;17.70;99.90;;;;;;5033934;28;20450;-72
2023/08/03 02:17:49;;;;;;;2.83;1.40;;;17.70;99.90;;;;;;5017361;28;20486;-72
2023/08/03 02:20:15;;;;;;;1.63;1.10;;;17.70;99.90;;;;;;5034955;28;20466;-72
2023/08/03 02:22:43;;;;;;;2.17;1.07;;;17.70;99.90;;;;;;5034801;28;20469;-72
2023/08/03 02:25:10;;;;;;;3.20;1.50;;;17.70;99.90;;;;;;5035110;28;20449;-72
2023/08/03 02:27:37;;;;;;;4.43;1.63;;;17.70;99.90;;;;;;5033712;28;20450;-73
2023/08/03 02:30:04;;;;;;;6.20;1.37;;;17.70;99.90;;;;;;5033694;28;20942;-72
2023/08/03 02:32:32;;;;;;;4.77;1.30;;;17.70;99.90;;;;;;5035087;28;20478;-73
2023/08/03 02:34:59;;;;;;;4.50;1.43;;;17.80;99.90;;;;;;5035066;28;20540;-72
2023/08/03 02:37:25;;;;;;;6.13;1.30;;;17.70;99.90;;;;;;5035134;28;20445;-72
2023/08/03 02:39:52;;;;;;;2.10;0.93;;;17.70;99.90;;;;;;5034978;28;20478;-72
2023/08/03 02:42:19;;;;;;;3.17;1.17;;;17.80;99.90;;;;;;5034279;28;20455;-72
2023/08/03 02:44:46;;;;;;;2.10;1.43;;;17.80;99.90;;;;;;5033293;28;20501;-73
2023/08/03 02:47:13;;;;;;;2.10;1.40;;;17.80;99.90;;;;;;5034477;28;20972;-73
2023/08/03 02:49:41;;;;;;;4.50;1.30;;;17.80;99.90;;;;;;5034273;28;20533;-73
2023/08/03 02:52:08;;;;;;;4.57;1.03;;;17.70;99.90;;;;;;5033331;28;20446;-73
2023/08/03 02:54:35;;;;;;;2.40;1.40;;;17.80;99.90;;;;;;5045226;28;20490;-72
2023/08/03 02:57:01;;;;;;;4.00;1.30;;;17.80;99.90;;;;;;5035609;28;20793;-73
2023/08/03 02:59:28;;;;;;;2.30;1.10;;;17.80;99.90;;;;;;5034641;28;20579;-72
2023/08/03 03:01:55;;;;;;;2.80;1.40;;;17.90;99.90;;;;;;5034894;28;20470;-73
2023/08/03 03:04:22;;;;;;;5.87;1.03;;;17.90;99.90;;;;;;5032781;28;20955;-73
2023/08/03 03:06:50;;;;;;;1.20;1.10;;;17.90;99.90;;;;;;5034350;28;20439;-73
2023/08/03 03:09:16;;;;;;;1.80;0.73;;;17.90;99.90;;;;;;5034173;28;20454;-73
2023/08/03 03:11:43;;;;;;;5.53;1.40;;;18.00;99.90;;;;;;5034024;28;20462;-73
2023/08/03 03:14:10;;;;;;;5.43;0.90;;;17.90;99.90;;;;;;5034025;28;20482;-73
2023/08/03 03:16:37;;;;;;;2.47;1.23;;;18.00;99.90;;;;;;5016968;28;20466;-73
2023/08/03 03:19:04;;;;;;;4.07;0.87;;;17.90;99.90;;;;;;5014463;28;20450;-72
2023/08/03 03:21:30;;;;;;;6.00;1.47;;;17.90;99.90;;;;;;5013190;28;20474;-73
2023/08/03 03:23:59;;;;;;;0.83;0.80;;;17.90;99.90;;;;;;5014205;28;20436;-73
2023/08/03 03:26:25;;;;;;;2.10;0.70;;;17.90;99.90;;;;;;5020080;28;20448;-72
2023/08/03 03:28:52;;;;;;;1.80;0.97;;;17.90;99.90;;;;;;5023025;28;20476;-73
2023/08/03 03:31:19;;;;;;;3.20;1.40;;;17.90;99.90;;;;;;5019461;28;20475;-72
2023/08/03 03:33:45;;;;;;;2.00;1.00;;;17.90;99.90;;;;;;5017575;28;20481;-72
2023/08/03 03:36:12;;;;;;;3.00;1.00;;;18.00;99.90;;;;;;5015815;28;20479;-73
2023/08/03 03:38:40;;;;;;;3.90;1.10;;;17.90;99.90;;;;;;5015077;28;20966;-72
2023/08/03 03:41:08;;;;;;;1.87;0.93;;;17.90;99.90;;;;;;5015860;28;20463;-72
2023/08/03 03:43:35;;;;;;;1.77;0.90;;;17.90;99.90;;;;;;5017779;28;20444;-72
2023/08/03 03:46:02;;;;;;;1.83;0.90;;;17.90;99.90;;;;;;5020436;28;20937;-73
2023/08/03 03:48:29;;;;;;;1.30;0.70;;;17.90;99.90;;;;;;5018855;28;20451;-73
2023/08/03 03:50:56;;;;;;;1.77;1.10;;;17.90;99.90;;;;;;5018707;28;20848;-73
2023/08/03 03:53:23;;;;;;;1.17;0.70;;;18.00;99.90;;;;;;5018465;28;20484;-72
2023/08/03 03:55:49;;;;;;;2.20;0.70;;;17.90;99.90;;;;;;5017949;28;20443;-73
2023/08/03 03:58:17;;;;;;;2.00;0.83;;;18.00;99.90;;;;;;5016890;28;20475;-73
2023/08/03 04:00:44;;;;;;;2.90;0.60;;;18.00;99.90;;;;;;5016395;28;20467;-72
2023/08/03 04:03:11;;;;;;;1.30;0.90;;;18.00;99.90;;;;;;5015996;28;20444;-72
2023/08/03 04:05:39;;;;;;;1.23;0.73;;;18.00;99.90;;;;;;5015055;28;20442;-72
2023/08/03 04:08:06;;;;;;;3.30;0.90;;;18.00;99.90;;;;;;5014812;28;20450;-72
2023/08/03 04:10:35;;;;;;;1.43;1.10;;;18.00;99.90;;;;;;5015495;28;20463;-73
2023/08/03 04:13:02;;;;;;;1.40;0.73;;;18.00;99.90;;;;;;5015498;28;20526;-73
2023/08/03 04:15:30;;;;;;;2.40;0.83;;;18.00;99.90;;;;;;5015723;28;20482;-73
2023/08/03 04:17:56;;;;;;;1.50;0.90;;;18.10;99.90;;;;;;5017904;28;20439;-73
2023/08/03 04:20:23;;;;;;;2.40;1.20;;;18.00;99.90;;;;;;5020413;28;20471;-73
2023/08/03 04:22:50;;;;;;;1.27;1.00;;;18.00;99.90;;;;;;5018934;28;20470;-73
2023/08/03 04:25:17;;;;;;;1.17;0.60;;;18.00;99.90;;;;;;5019115;28;20952;-71
2023/08/03 04:27:44;;;;;;;2.63;0.80;;;18.10;99.90;;;;;;5018492;28;20889;-71
2023/08/03 04:30:13;;;;;;;3.50;0.90;;;18.00;99.90;;;;;;5017353;28;20470;-70
2023/08/03 04:32:41;;;;;;;1.73;0.63;;;18.10;99.90;;;;;;5018252;28;20447;-71
2023/08/03 04:35:10;;;;;;;1.33;0.60;;;18.00;99.90;;;;;;5018478;28;20525;-71
2023/08/03 04:37:37;;;;;;;4.50;2.20;;;18.10;99.90;;;;;;5016911;28;20455;-71
2023/08/03 04:40:04;;;;;;;1.70;0.70;;;18.10;99.90;;;;;;5017900;28;20463;-71
2023/08/03 04:42:31;;;;;;;5.10;0.80;;;18.10;99.90;;;;;;5017622;28;20494;-72
2023/08/03 04:44:58;;;;;;;1.73;0.90;;;18.10;99.90;;;;;;5016245;28;20471;-71
2023/08/03 04:47:25;;;;;;;3.27;0.87;;;18.10;99.90;;;;;;5016152;28;20542;-71
2023/08/03 04:49:53;;;;;;;1.30;0.70;;;18.10;99.90;;;;;;5017686;28;20467;-71
2023/08/03 04:52:21;;;;;;;1.13;0.53;;;18.10;99.90;;;;;;5017634;28;20447;-71
2023/08/03 04:54:48;;;;;;;0.73;0.73;;;18.20;99.90;;;;;;5017550;28;20497;-71
2023/08/03 04:57:15;;;;;;;3.90;0.73;;;18.20;99.90;;;;;;5017202;28;20443;-71
2023/08/03 04:59:42;;;;;;;2.37;0.80;;;18.20;99.90;;;;;;5017526;28;20446;-71
2023/08/03 05:02:09;;;;;;;0.90;0.70;;;18.20;99.90;;;;;;5017036;28;20447;-71
2023/08/03 05:04:35;;;;;;;2.43;0.70;;;18.30;99.90;;;;;;5017400;28;20447;-71
2023/08/03 05:07:04;;;;;;;2.77;0.60;;;18.30;99.90;;;;;;5017149;28;20460;-71
2023/08/03 05:09:31;;;;;;;2.80;0.73;;;18.40;99.90;;;;;;5016867;28;20451;-72
2023/08/03 05:11:58;;;;;;;2.50;0.70;;;18.40;99.90;;;;;;5016610;28;20463;-72
2023/08/03 05:14:26;;;;;;;0.63;0.63;;;18.40;99.90;;;;;;5016857;28;20525;-72
2023/08/03 05:16:52;;;;;;;1.77;1.00;;;18.40;99.90;;;;;;5016694;28;20814;-72
2023/08/03 05:19:19;;;;;;;1.43;0.60;;;18.40;99.90;;;;;;5016508;28;20940;-71
2023/08/03 05:21:46;;;;;;;1.80;0.70;;;18.40;99.90;;;;;;5016778;28;20475;-72
2023/08/03 05:24:14;;;;;;;2.80;0.70;;;18.40;99.90;;;;;;5016858;28;20448;-72
2023/08/03 05:26:41;;;;;;;2.00;0.83;;;18.40;99.90;;;;;;5016068;28;20471;-72
2023/08/03 05:29:10;;;;;;;1.53;0.40;;;18.50;99.90;;;;;;5016197;28;20968;-72
2023/08/03 05:31:36;;;;;;;1.30;0.80;;;18.40;99.90;;;;;;5016575;28;20459;-71
2023/08/03 05:34:03;;;;;;;2.87;0.50;;;18.40;99.90;;;;;;5016489;28;20579;-72
2023/08/03 05:36:30;;;;;;;1.37;0.40;;;18.30;99.90;;;;;;5016310;28;20443;-72
2023/08/03 05:38:57;;;;;;;1.13;0.43;;;18.20;99.90;;;;;;5016715;28;20459;-72
2023/08/03 05:41:27;;;;;;;1.63;0.73;;;18.20;99.90;;;;;;5021658;28;20459;-73
2023/08/03 05:43:54;;;;;;;1.73;0.90;;;18.20;99.90;;;;;;5028609;28;20442;-72
2023/08/03 05:46:21;;;;;;;0.80;0.70;;;18.10;99.90;;;;;;5024411;28;20805;-72
2023/08/03 05:48:49;;;;;;;1.30;0.50;;;18.10;99.90;;;;;;5022075;28;20929;-72
2023/08/03 05:51:25;;;;;;;2.10;0.63;;;18.00;99.90;;;;;;5019448;28;20526;-71
2023/08/03 05:53:53;;;;;;;1.73;0.70;;;17.90;99.90;;;;;;5018794;28;20463;-72
2023/08/03 05:56:21;;;;;;;2.63;0.80;;;17.80;99.90;;;;;;5016544;28;20631;-72
2023/08/03 05:58:50;;;;;;;1.33;0.90;;;17.80;99.90;;;;;;5017024;28;20444;-72
2023/08/03 06:01:19;;;;;;;3.23;0.93;;;17.80;99.90;;;;;;5015389;28;20507;-72
2023/08/03 06:03:47;;;;;;;4.63;1.00;;;17.80;99.90;;;;;;5015572;28;20447;-73
2023/08/03 06:06:18;;;;;;;2.63;1.63;;;17.70;99.90;;;;;;5016059;28;20510;-72
2023/08/03 06:08:48;;;;;;;2.30;1.00;;;17.80;99.90;;;;;;5015042;28;20498;-72
2023/08/03 06:11:17;;;;;;;2.87;1.40;;;17.70;99.90;;;;;;5016143;28;20517;-73
2023/08/03 06:13:45;;;;;;;3.33;0.93;;;17.70;99.90;;;;;;5014853;28;20498;-72
2023/08/03 06:16:15;;;;;;;4.40;1.00;;;17.70;99.90;;;;;;5015928;28;20483;-72
2023/08/03 06:18:48;;;;;;;1.40;0.90;;;17.80;99.90;;;;;;5015422;28;20443;-72
2023/08/03 06:21:15;;;;;;;1.00;0.90;;;17.80;99.90;;;;;;5015841;28;20542;-72
2023/08/03 06:23:46;;;;;;;4.13;0.90;;;17.70;99.90;;;;;;5015319;28;20497;-70
2023/08/03 06:26:14;;;;;;;5.80;1.50;;;17.70;99.90;;;;;;5015369;28;20893;-71
2023/08/03 06:28:41;;;;;;;2.93;1.03;;;17.80;99.90;;;;;;5015413;28;20431;-72
2023/08/03 06:31:15;;;;;;;1.87;0.93;;;17.70;99.90;;;;;;5015302;28;20463;-72
2023/08/03 06:33:42;;;;;;;1.00;0.90;;;17.70;99.90;;;;;;5015151;28;20440;-72
2023/08/03 06:36:11;;;;;;;1.03;0.93;;;17.80;99.90;;;;;;5014129;28;21017;-71
2023/08/03 06:38:39;;;;;;;2.40;1.10;;;17.80;99.90;;;;;;5015039;28;20479;-72
2023/08/03 06:41:06;;;;;;;1.43;0.70;;;17.70;99.90;;;;;;5014230;28;20840;-72
2023/08/03 06:43:33;;;;;;;1.50;0.80;;;17.70;99.90;;;;;;5014987;28;20471;-72
2023/08/03 06:46:00;;;;;;;2.03;1.10;;;17.70;99.90;;;;;;5014919;28;20961;-72
2023/08/03 06:48:29;;;;;;;3.10;1.10;;;17.80;99.90;;;;;;5014473;28;20447;-72
2023/08/03 06:50:56;;;;;;;1.10;1.00;;;17.70;99.90;;;;;;5014872;28;20463;-72
2023/08/03 06:53:25;;;;;;;1.50;1.00;;;17.80;99.90;;;;;;5014579;28;20455;-72
2023/08/03 06:55:52;;;;;;;0.90;0.83;;;17.80;99.90;;;;;;5014941;28;20487;-72
2023/08/03 06:58:19;;;;;;;2.00;1.10;;;17.90;99.90;;;;;;5013704;28;20440;-72
2023/08/03 07:00:46;;;;;;;2.87;1.00;;;17.90;99.90;;;;;;5014742;28;20463;-72
2023/08/03 07:03:14;;;;;;;1.33;0.87;;;17.90;99.90;;;;;;5014860;28;20448;-72
2023/08/03 07:05:43;;;;;;;1.90;1.10;;;18.00;99.90;;;;;;5014980;28;20442;-72
2023/08/03 07:08:10;;;;;;;1.20;1.10;;;18.10;99.90;;;;;;5016182;28;20453;-71
2023/08/03 07:10:38;;;;;;;1.87;0.90;;;18.00;99.90;;;;;;5014682;28;20822;-72
2023/08/03 07:13:05;;;;;;;3.00;1.13;;;18.10;99.90;;;;;;5014811;28;20462;-72
2023/08/03 07:15:33;;;;;;;2.73;1.03;;;18.10;99.90;;;;;;5013432;28;20486;-72
2023/08/03 07:18:01;;;;;;;3.07;1.10;;;18.10;99.90;;;;;;5014280;28;20459;-73
2023/08/03 07:20:28;;;;;;;2.23;1.00;;;18.10;99.90;;;;;;5012867;28;20980;-73
2023/08/03 07:22:57;;;;;;;1.27;0.87;;;18.10;99.90;;;;;;5014242;28;20821;-73
2023/08/03 07:25:23;;;;;;;2.23;0.80;;;18.10;99.90;;;;;;5012913;28;20443;-73
2023/08/03 07:27:51;;;;;;;2.77;1.23;;;18.00;99.90;;;;;;5013785;28;20451;-72
2023/08/03 07:30:18;;;;;;;1.70;1.30;;;17.90;99.90;;;;;;5013997;28;20478;-73
2023/08/03 07:32:45;;;;;;;2.90;0.90;;;17.80;99.90;;;;;;5014175;28;20443;-72
2023/08/03 07:35:12;;;;;;;3.33;1.20;;;17.70;99.90;;;;;;5014531;28;20498;-73
2023/08/03 07:37:39;;;;;;;1.83;1.10;;;17.70;99.90;;;;;;5014253;28;20478;-72
2023/08/03 07:40:09;;;;;;;1.70;1.00;;;17.80;99.90;;;;;;5013787;28;20463;-72
2023/08/03 07:42:36;;;;;;;1.30;1.00;;;17.80;99.90;;;;;;5013660;28;20990;-72
2023/08/03 07:45:02;;;;;;;1.57;0.90;;;17.70;99.90;;;;;;5013817;28;20454;-72
2023/08/03 07:47:30;;;;;;;2.17;1.50;;;17.80;99.90;;;;;;5013858;28;20816;-72
2023/08/03 07:49:58;;;;;;;1.77;0.83;;;17.80;99.90;;;;;;5012249;28;20471;-73
2023/08/03 07:52:25;;;;;;;1.37;0.90;;;17.80;99.90;;;;;;5012606;28;21028;-72
2023/08/03 07:54:54;;;;;;;2.27;1.10;;;17.70;99.90;;;;;;5013085;28;21004;-73
2023/08/03 07:57:22;;;;;;;1.93;1.00;;;17.80;99.90;;;;;;5013545;28;20447;-71
2023/08/03 07:59:50;;;;;;;2.80;1.27;;;17.90;99.90;;;;;;5026405;28;20447;-73
2023/08/03 08:02:17;;;;;;;2.43;0.90;;;18.10;99.90;;;;;;5020812;28;20451;-73
2023/08/03 08:04:44;;;;;;;3.53;0.80;;;18.30;99.90;;;;;;5018331;28;20451;-73
2023/08/03 08:07:10;;;;;;;1.10;0.80;;;18.50;99.90;;;;;;5015897;28;20443;-73
2023/08/03 08:09:37;;;;;;;1.63;0.67;;;18.60;99.90;;;;;;5014774;28;20451;-74
2023/08/03 08:12:06;;;;;;;0.93;0.60;;;18.70;99.90;;;;;;5013766;28;20467;-73
2023/08/03 08:14:35;;;;;;;1.60;0.73;;;18.80;99.90;;;;;;5014453;28;20439;-72
2023/08/03 08:17:03;;;;;;;1.13;0.60;;;18.90;99.90;;;;;;5014453;28;20479;-73
2023/08/03 08:19:31;;;;;;;0.87;0.47;;;19.10;99.90;;;;;;5014212;28;20447;-73
2023/08/03 08:21:58;;;;;;;0.90;0.67;;;19.10;99.90;;;;;;5012535;28;20933;-72
2023/08/03 08:24:24;;;;;;;2.50;1.17;;;19.20;99.90;;;;;;5013943;28;20447;-73
2023/08/03 08:26:51;;;;;;;2.70;0.73;;;19.30;99.90;;;;;;5013577;28;20466;-73
2023/08/03 08:29:18;;;;;;;3.90;0.70;;;19.20;99.90;;;;;;5013580;28;20929;-72
2023/08/03 08:31:47;;;;;;;1.13;0.60;;;19.20;99.90;;;;;;5024855;28;20566;-72
2023/08/03 08:34:14;;;;;;;2.40;1.00;;;19.20;99.90;;;;;;5014686;28;20911;-72
2023/08/03 08:36:40;;;;;;;2.80;0.83;;;19.20;99.90;;;;;;5013550;28;20483;-73
2023/08/03 08:39:07;;;;;;;1.17;0.67;;;19.20;99.90;;;;;;5013353;28;20963;-72
2023/08/03 08:41:40;;;;;;;2.97;1.13;;;19.30;99.90;;;;;;5012904;28;20482;-72
2023/08/03 08:44:06;;;;;;;1.10;0.50;;;19.20;99.90;;;;;;5013228;28;20799;-72
2023/08/03 08:46:33;;;;;;;2.43;0.90;;;19.30;99.90;;;;;;5013243;28;20450;-72
2023/08/03 08:49:02;;;;;;;3.93;1.40;;;19.30;99.90;;;;;;5013019;28;20459;-73
2023/08/03 08:51:29;;;;;;;2.13;0.90;;;19.30;99.90;;;;;;5013397;28;20533;-72
2023/08/03 08:53:56;;;;;;;2.63;1.00;;;19.20;99.90;;;;;;5012114;28;20447;-72
2023/08/03 08:56:23;;;;;;;5.90;1.37;;;19.20;99.90;;;;;;5011579;28;20479;-72
2023/08/03 08:58:50;;;;;;;1.23;0.60;;;19.20;99.90;;;;;;5013045;28;20474;-73
2023/08/03 09:01:17;;;;;;;1.13;1.03;;;19.20;99.90;;;;;;5012892;28;20964;-72
2023/08/03 09:03:48;;;;;;;2.20;1.30;;;19.10;99.90;;;;;;5015170;28;20478;-72
2023/08/03 09:06:16;;;;;;;1.83;0.80;;;19.30;99.90;;;;;;5016688;28;20538;-72
2023/08/03 09:08:51;;;;;;;4.23;1.10;;;19.40;99.90;;;;;;5016156;28;20444;-73
2023/08/03 09:11:18;;;;;;;1.30;0.70;;;19.70;99.90;;;;;;5016189;28;20839;-72
2023/08/03 09:13:48;;;;;;;1.13;0.67;;;19.90;99.90;;;;;;5016657;28;20451;-72
2023/08/03 09:16:23;;;;;;;3.53;0.90;;;20.10;99.90;;;;;;5015951;28;20575;-73
2023/08/03 09:18:50;;;;;;;2.67;0.90;;;20.20;99.90;;;;;;5016673;28;20447;-72
2023/08/03 09:21:19;;;;;;;3.10;0.90;;;20.20;99.90;;;;;;5016493;28;20467;-73
2023/08/03 09:23:46;;;;;;;2.67;1.23;;;20.10;99.90;;;;;;5016543;28;20439;-73
2023/08/03 09:26:13;;;;;;;2.50;0.90;;;20.00;99.90;;;;;;5016234;28;20470;-73
2023/08/03 09:28:41;;;;;;;2.20;1.00;;;19.80;99.90;;;;;;5016268;28;20485;-72
2023/08/03 09:31:10;;;;;;;1.33;1.10;;;19.70;99.90;;;;;;5016288;28;20471;-73
2023/08/03 09:33:38;;;;;;;3.40;1.30;;;19.70;99.90;;;;;;5016061;28;20824;-73
2023/08/03 09:36:07;;;;;;;3.30;1.17;;;19.50;99.90;;;;;;5015963;28;21011;-73
2023/08/03 09:38:36;;;;;;;6.93;1.53;;;19.40;99.90;;;;;;5016048;28;20814;-73
2023/08/03 09:41:02;;;;;;;3.40;1.63;;;19.50;99.90;;;;;;5015952;28;20469;-73
2023/08/03 09:43:30;;;;;;;1.73;1.53;;;19.70;99.90;;;;;;5014900;28;20462;-73
2023/08/03 09:45:57;;;;;;;4.00;1.33;;;20.10;99.90;;;;;;5015698;28;20929;-73
2023/08/03 09:48:26;;;;;;;1.83;0.93;;;20.40;99.90;;;;;;5015589;28;20971;-74
2023/08/03 09:50:54;;;;;;;3.00;1.27;;;20.70;99.90;;;;;;5016088;28;20502;-74
2023/08/03 09:53:23;;;;;;;2.80;1.47;;;20.90;98.70;;;;;;5014887;28;20452;-74
2023/08/03 09:56:00;;;;;;;3.63;1.77;;;20.90;98.60;;;;;;5015425;28;20574;-73
2023/08/03 09:58:34;;;;;;;2.23;1.00;;;21.10;99.00;;;;;;5015835;28;20439;-74
2023/08/03 10:01:04;;;;;;;2.50;1.10;;;21.30;97.60;;;;;;5015701;28;20467;-74
2023/08/03 10:03:33;;;;;;;3.63;1.50;;;21.50;97.40;;;;;;5015858;28;20450;-74
2023/08/03 10:06:06;;;;;;;2.60;1.30;;;21.60;96.40;;;;;;5015960;28;20446;-74
2023/08/03 10:08:43;;;;;;;3.67;1.57;;;21.60;96.00;;;;;;5014883;28;20428;-74
2023/08/03 10:11:13;;;;;;;4.20;1.70;;;21.70;95.30;;;;;;5031587;28;20483;-74
2023/08/03 10:13:43;;;;;;;3.97;1.57;;;21.60;95.10;;;;;;5023273;28;20503;-74
2023/08/03 10:16:12;;;;;;;4.37;1.30;;;21.70;95.10;;;;;;5019677;28;20468;-74
2023/08/03 10:18:41;;;;;;;6.43;1.60;;;21.90;95.30;;;;;;5018936;28;20451;-75
2023/08/03 10:21:09;;;;;;;1.87;1.23;;;22.10;95.20;;;;;;5016089;28;20980;-75
2023/08/03 10:23:38;;;;;;;4.00;1.27;;;22.30;94.10;;;;;;5016505;28;20451;-75
2023/08/03 10:26:07;;;;;;;3.83;1.60;;;22.40;93.10;;;;;;5014878;28;20542;-75
2023/08/03 10:28:47;;;;;;;1.93;1.10;;;22.50;93.00;;;;;;5015769;28;20797;-71
2023/08/03 10:31:15;;;;;;;5.37;1.00;;;23.00;91.90;;;;;;5015881;28;20475;-69
2023/08/03 10:34:23;;;;;;;3.57;1.10;;;23.20;90.60;;;;;;5015185;28;20443;-68
2023/08/03 10:36:53;;;;;;;3.10;1.43;;;23.70;90.70;;;;;;5015292;28;20478;-68
2023/08/03 10:39:47;;;;;;;3.43;1.20;;;24.00;88.00;;;;;;5015284;28;20549;-68
2023/08/03 10:42:28;;;;;;;4.20;1.60;;;24.20;88.50;;;;;;5015248;28;20467;-68
2023/08/03 10:45:29;;;;;;;2.83;1.07;;;24.60;85.90;;;;;;5014952;28;20430;-69
2023/08/03 10:48:28;;;;;;;2.63;1.00;;;24.40;84.20;;;;;;5014674;28;20428;-68
2023/08/03 10:50:59;;;;;;;1.70;1.10;;;24.00;85.60;;;;;;5014665;28;20459;-68
2023/08/03 10:53:25;;;;;;;5.20;1.50;;;23.60;88.50;;;;;;5014209;28;20963;-68
2023/08/03 10:56:04;;;;;;;2.83;1.50;;;23.40;89.00;;;;;;5013713;28;20478;-68
2023/08/03 10:58:31;;;;;;;2.17;1.30;;;23.10;89.50;;;;;;5014972;28;20815;-73
2023/08/03 11:00:59;;;;;;;4.53;1.00;;;22.90;91.70;;;;;;5014474;28;20467;-68
2023/08/03 11:03:36;;;;;;;2.93;1.60;;;22.80;91.30;;;;;;5014578;28;20436;-68
2023/08/03 11:06:04;;;;;;;5.27;1.80;;;22.50;91.50;;;;;;5014814;28;20439;-68
2023/08/03 11:08:31;;;;;;;4.67;1.60;;;22.30;92.50;;;;;;5014640;28;20447;-69
2023/08/03 11:10:58;;;;;;;4.10;1.50;;;22.00;93.60;;;;;;5023189;28;20489;-70
2023/08/03 11:13:25;;;;;;;5.00;1.67;;;22.00;93.80;;;;;;5034463;28;20457;-69
2023/08/03 11:15:53;;;;;;;4.10;2.10;;;22.20;93.50;;;;;;5033681;28;20521;-69
2023/08/03 11:18:22;;;;;;;4.67;1.67;;;22.70;92.40;;;;;;5040993;28;20427;-74
2023/08/03 11:20:48;;;;;;;4.53;1.70;;;23.00;91.70;;;;;;5038066;28;20470;-69
2023/08/03 11:23:15;;;;;;;4.67;1.53;;;23.10;91.20;;;;;;5033991;28;20442;-70
2023/08/03 11:25:42;;;;;;;5.83;1.67;;;23.10;91.10;;;;;;5033932;28;20442;-69
2023/08/03 11:28:09;;;;;;;2.80;1.70;;;23.30;90.60;;;;;;5034215;28;20457;-69
2023/08/03 11:30:44;;;;;;;3.13;1.40;;;23.60;90.50;;;;;;5034091;28;20459;-70
2023/08/03 11:33:13;;;;;;;2.40;1.83;;;23.70;89.10;;;;;;5036322;28;20434;-73
2023/08/03 11:35:41;;;;;;;2.40;1.23;;;23.80;88.60;;;;;;5040697;28;20458;-70
2023/08/03 11:38:10;;;;;;;3.73;1.33;;;23.80;90.00;;;;;;5039554;28;20529;-69
2023/08/03 11:40:38;;;;;;;3.63;1.20;;;23.60;90.30;;;;;;5038416;28;20470;-70
2023/08/03 11:43:05;;;;;;;2.30;1.10;;;23.40;90.90;;;;;;5038040;28;20469;-70
2023/08/03 11:45:35;;;;;;;4.40;1.13;;;23.10;91.90;;;;;;5035361;28;20453;-70
2023/08/03 11:48:02;;;;;;;2.33;1.00;;;22.80;92.80;;;;;;5036216;28;20485;-69
2023/08/03 11:50:29;;;;;;;2.10;1.10;;;23.10;94.10;;;;;;5035062;28;20482;-69
2023/08/03 11:53:00;;;;;;;3.10;0.73;;;24.10;93.30;;;;;;5034298;28;20442;-73
2023/08/03 11:55:28;;;;;;;1.47;0.80;;;24.60;89.30;;;;;;5035847;28;20427;-71
2023/08/03 11:58:10;;;;;;;2.00;1.00;;;24.80;90.30;;;;;;5032966;28;20917;-72
2023/08/03 12:00:37;;;;;;;1.53;0.90;;;25.50;89.10;;;;;;5034867;28;21001;-69
2023/08/03 12:03:05;;;;;;;1.53;0.80;;;26.10;82.70;;;;;;5034874;28;20441;-69
2023/08/03 12:05:45;;;;;;;3.73;1.00;;;26.00;79.40;;;;;;5034071;28;20521;-70
2023/08/03 12:08:17;;;;;;;2.17;0.87;;;25.80;80.40;;;;;;5033973;28;20442;-69
2023/08/03 12:10:57;;;;;;;2.43;0.93;;;25.60;80.20;;;;;;5034294;28;20458;-69
2023/08/03 12:13:24;;;;;;;4.47;1.03;;;25.30;82.00;;;;;;5034862;28;20439;-69
2023/08/03 12:15:51;;;;;;;8.10;0.90;;;25.00;80.80;;;;;;5032839;28;20964;-69
2023/08/03 12:18:17;;;;;;;2.95;1.13;;;24.90;80.80;;;;;;5040317;28;20522;-69
2023/08/03 12:20:44;;;;;;;1.43;1.10;;;24.50;81.80;;;;;;5040249;28;20228;-69
2023/08/03 12:23:12;;;;;;;1.73;1.23;;;23.80;81.50;;;;;;5040721;28;20446;-74
2023/08/03 12:25:40;;;;;;;4.50;1.50;;;23.10;87.20;;;;;;5035785;28;20486;-74
2023/08/03 12:28:07;;;;;;;3.43;1.20;;;22.70;90.70;;;;;;5034984;28;20477;-73
2023/08/03 12:30:34;;;;;;;3.20;1.20;;;22.50;90.40;;;;;;5033251;28;20506;-73
2023/08/03 12:33:01;;;;;;;1237.72;96.38;;;22.40;90.80;;;;;;5034347;28;20438;-73
2023/08/03 12:35:28;;;;;;;8.53;2.30;;;22.30;91.40;;;;;;5034699;28;20199;-74
2023/08/03 12:37:57;;;;;;;7.80;1.80;;;22.30;91.40;;;;;;5035349;28;20482;-75
2023/08/03 12:40:25;;;;;;;3.37;1.60;;;22.20;92.70;;;;;;5038535;28;20489;-73
2023/08/03 12:42:52;;;;;;;4.87;1.53;;;22.10;93.20;;;;;;5038066;28;20508;-74
2023/08/03 12:45:19;;;;;;;1.77;1.17;;;22.10;94.40;;;;;;5037686;28;20451;-73
2023/08/03 12:47:46;;;;;;;3.33;1.20;;;22.40;93.30;;;;;;5038057;28;20450;-73
2023/08/03 12:50:12;;;;;;;3.22;1.00;;;23.20;93.00;;;;;;5037270;28;20957;-73